Time;durP1;ratioP1;P1;durP2;ratioP2;P2;SDS_P1;SDS_P2;PMS_P1;PMS_P2;Temp;Humidity;BMP_temperature;BMP_pressure;BME280_temperature;BME280_humidity;BME280_pressure;Samples;Min_cycle;Max_cycle;Signal;HPM_P1;HPM_P2
2022/04/12 00:00:59;;;;;;;9.95;4.65;;;;;;;8.93;57.54;101006.69;5110562;28;20039;-71
2022/04/12 00:03:24;;;;;;;9.18;4.30;;;;;;;8.93;55.95;101002.13;5098020;28;20034;-68
2022/04/12 00:05:51;;;;;;;8.18;5.68;;;;;;;8.94;57.20;100989.44;5111919;28;20440;-72
2022/04/12 00:08:17;;;;;;;10.85;4.80;;;;;;;8.98;56.20;100979.28;5110227;28;20047;-71
2022/04/12 00:10:42;;;;;;;6.90;4.32;;;;;;;8.98;56.58;100979.28;5096727;28;20110;-76
2022/04/12 00:13:08;;;;;;;9.80;4.07;;;;;;;8.96;56.50;100978.50;5103729;28;20123;-66
2022/04/12 00:15:33;;;;;;;10.07;4.82;;;;;;;8.96;56.25;100978.50;5110164;28;20019;-69
2022/04/12 00:20:43;;;;;;;5.28;4.25;;;;;;;8.97;56.74;100974.81;5111498;28;20032;-67
2022/04/12 00:23:10;;;;;;;5.28;4.32;;;;;;;8.96;56.40;100965.81;5096266;28;20027;-69
2022/04/12 00:25:36;;;;;;;6.35;3.72;;;;;;;8.95;56.00;100972.19;5087870;28;20036;-69
2022/04/12 00:28:01;;;;;;;5.32;4.00;;;;;;;8.96;56.12;100973.09;5095216;28;20539;-71
2022/04/12 00:30:28;;;;;;;5.80;3.80;;;;;;;8.94;56.65;100971.31;5098872;28;20082;-76
2022/04/12 00:32:55;;;;;;;6.50;4.07;;;;;;;8.91;56.78;100968.81;5093700;28;20028;-69
2022/04/12 00:35:22;;;;;;;6.55;3.92;;;;;;;8.92;56.57;100969.69;5093884;28;20023;-71
2022/04/12 00:37:47;;;;;;;7.65;4.38;;;;;;;8.86;56.87;100962.81;5098050;28;20031;-69
2022/04/12 00:40:14;;;;;;;9.05;4.35;;;;;;;8.84;57.06;100966.56;5100742;28;20065;-76
2022/04/12 00:42:40;;;;;;;6.90;4.60;;;;;;;8.81;56.99;100964.94;5096614;28;20032;-71
2022/04/12 00:45:06;;;;;;;10.25;4.30;;;;;;;8.80;56.64;100965.88;5107792;28;20382;-68
2022/04/12 00:47:31;;;;;;;5.85;4.32;;;;;;;8.81;57.20;100970.38;5101352;28;20028;-67
2022/04/12 00:49:57;;;;;;;8.43;4.30;;;;;;;8.75;57.82;100969.88;5102071;28;20043;-66
2022/04/12 00:52:25;;;;;;;8.13;4.63;;;;;;;8.75;57.57;100976.16;5102552;28;20059;-76
2022/04/12 00:54:53;;;;;;;9.20;5.05;;;;;;;8.72;57.79;100965.53;5089458;28;20024;-70
2022/04/12 00:57:18;;;;;;;8.32;4.38;;;;;;;8.66;57.70;100961.34;5088688;28;20075;-77
2022/04/12 00:59:44;;;;;;;10.20;4.10;;;;;;;8.66;57.38;100972.19;5089227;28;20075;-70
2022/04/12 01:02:10;;;;;;;6.28;4.28;;;;;;;8.64;57.55;100970.56;5091570;28;20027;-66
2022/04/12 01:04:36;;;;;;;5.60;4.07;;;;;;;8.61;57.72;100979.72;5090457;28;20541;-71
2022/04/12 01:07:03;;;;;;;7.97;4.22;;;;;;;8.58;58.03;100979.94;5094283;28;20040;-66
2022/04/12 01:09:28;;;;;;;5.45;3.72;;;;;;;8.53;57.80;100973.91;5105252;28;20088;-71
2022/04/12 01:11:55;;;;;;;9.23;4.35;;;;;;;8.50;58.09;100968.69;5091257;28;20082;-71
2022/04/12 01:14:22;;;;;;;6.65;4.00;;;;;;;8.48;58.34;100965.19;5109945;28;20036;-71
2022/04/12 01:16:48;;;;;;;7.07;4.40;;;;;;;8.42;58.58;100961.03;5087895;28;20042;-75
2022/04/12 01:19:13;;;;;;;6.03;4.07;;;;;;;8.37;58.23;100965.00;5108072;28;20019;-67
2022/04/12 01:21:46;;;;;;;6.45;4.13;;;;;;;8.32;59.19;100953.53;5110341;28;20031;-66
2022/04/12 01:24:12;;;;;;;8.25;5.38;;;;;;;8.30;58.77;100969.00;5100951;28;20046;-73
2022/04/12 01:26:39;;;;;;;8.25;4.60;;;;;;;8.23;59.06;100962.22;5108954;28;20031;-70
2022/04/12 01:29:04;;;;;;;7.75;4.40;;;;;;;8.19;59.79;100961.53;5104615;28;20034;-66
2022/04/12 01:31:30;;;;;;;5.95;4.25;;;;;;;8.16;59.84;100962.59;5093415;28;20106;-66
2022/04/12 01:33:55;;;;;;;9.77;4.78;;;;;;;8.10;59.64;100957.53;5102913;28;20086;-76
2022/04/12 01:36:20;;;;;;;8.43;4.07;;;;;;;8.07;59.41;100948.75;5094663;28;20530;-66
2022/04/12 01:38:46;;;;;;;9.98;5.00;;;;;;;8.07;59.80;100959.56;5104341;28;20550;-71
2022/04/12 01:41:11;;;;;;;5.95;4.22;;;;;;;8.00;60.84;100959.06;5092088;28;20380;-68
2022/04/12 01:43:37;;;;;;;7.30;4.32;;;;;;;7.93;60.78;100955.84;5102026;28;20043;-66
2022/04/12 01:46:02;;;;;;;7.40;4.50;;;;;;;7.87;60.88;100952.63;5101801;28;20484;-75
2022/04/12 01:48:28;;;;;;;8.27;4.50;;;;;;;7.86;60.73;100953.59;5081675;28;20032;-76
2022/04/12 01:50:54;;;;;;;6.90;4.35;;;;;;;7.79;61.74;100954.94;5110183;28;20428;-71
2022/04/12 01:53:19;;;;;;;6.53;4.82;;;;;;;7.73;62.26;100953.44;5108979;28;20036;-70
2022/04/12 01:55:45;;;;;;;7.07;3.88;;;;;;;7.68;61.85;100955.53;5101462;28;20032;-76
2022/04/12 01:58:10;;;;;;;8.57;4.22;;;;;;;7.67;61.37;100945.69;5113007;27;20039;-68
2022/04/12 02:00:36;;;;;;;6.00;3.95;;;;;;;7.68;61.17;100937.47;5117053;27;20049;-66
2022/04/12 02:03:02;;;;;;;9.40;4.70;;;;;;;7.67;61.78;100930.31;5115445;28;20032;-67
2022/04/12 02:05:28;;;;;;;6.32;4.10;;;;;;;7.69;60.82;100935.63;5116528;28;20538;-67
2022/04/12 02:07:53;;;;;;;7.43;3.75;;;;;;;7.66;60.83;100935.81;5116880;27;20067;-68
2022/04/12 02:10:21;;;;;;;6.78;4.22;;;;;;;7.65;61.13;100942.22;5100443;28;20032;-71
2022/04/12 02:12:47;;;;;;;8.52;4.43;;;;;;;7.61;61.69;100951.47;5108473;27;20027;-76
2022/04/12 02:15:12;;;;;;;6.95;4.50;;;;;;;7.56;61.71;100940.91;5112275;28;20058;-71
2022/04/12 02:17:37;;;;;;;7.50;4.95;;;;;;;7.51;62.37;100951.13;5112828;27;20015;-66
2022/04/12 02:20:03;;;;;;;6.38;3.72;;;;;;;7.48;62.20;100945.00;5116508;27;20054;-76
2022/04/12 02:22:29;;;;;;;12.70;4.07;;;;;;;7.44;62.44;100944.31;5098373;28;20141;-77
2022/04/12 02:24:54;;;;;;;7.32;3.83;;;;;;;7.42;61.91;100935.44;5113564;27;20069;-76
2022/04/12 02:27:19;;;;;;;7.78;4.25;;;;;;;7.43;61.86;100934.47;5110525;28;20059;-71
2022/04/12 02:29:44;;;;;;;6.15;4.45;;;;;;;7.40;61.75;100937.31;5115058;28;20440;-74
2022/04/12 02:32:10;;;;;;;6.45;4.15;;;;;;;7.36;63.13;100941.16;5107112;28;20436;-76
2022/04/12 02:34:35;;;;;;;8.07;4.10;;;;;;;7.27;64.25;100945.28;5116563;27;20402;-69
2022/04/12 02:37:01;;;;;;;5.82;4.32;;;;;;;7.22;63.94;100943.78;5116426;27;20035;-66
2022/04/12 02:39:26;;;;;;;7.22;3.78;;;;;;;7.15;63.58;100927.91;5104978;28;20035;-71
2022/04/12 02:41:51;;;;;;;6.63;4.45;;;;;;;7.15;64.74;100937.88;5102464;28;20032;-74
2022/04/12 02:44:17;;;;;;;6.35;4.20;;;;;;;7.10;64.77;100942.69;5108467;28;20123;-68
2022/04/12 02:46:42;;;;;;;5.18;4.22;;;;;;;7.05;64.52;100933.94;5112252;27;20126;-68
2022/04/12 02:49:08;;;;;;;8.05;4.78;;;;;;;7.02;64.13;100929.56;5110967;28;20122;-77
2022/04/12 02:51:33;;;;;;;5.68;4.28;;;;;;;7.02;64.00;100928.69;5114841;28;20363;-71
2022/04/12 02:53:59;;;;;;;5.20;4.22;;;;;;;7.02;63.79;100918.75;5108163;27;20407;-76
2022/04/12 02:56:24;;;;;;;10.60;4.55;;;;;;;7.03;63.70;100923.19;5111072;27;20043;-67
2022/04/12 02:58:50;;;;;;;6.75;4.03;;;;;;;7.02;64.25;100921.47;5105993;27;20058;-69
2022/04/12 03:01:15;;;;;;;6.05;4.63;;;;;;;6.99;64.40;100908.09;5107790;27;20039;-68
2022/04/12 03:03:40;;;;;;;6.93;4.13;;;;;;;6.96;64.60;100908.28;5096076;28;20411;-77
2022/04/12 03:06:06;;;;;;;8.57;4.55;;;;;;;6.92;64.13;100917.53;5113641;28;20077;-77
2022/04/12 03:08:31;;;;;;;6.35;4.40;;;;;;;6.90;64.20;100911.31;5109356;28;20074;-68
2022/04/12 03:10:57;;;;;;;8.30;4.30;;;;;;;6.87;64.71;100911.50;5110133;27;20031;-75
2022/04/12 03:13:23;;;;;;;9.85;4.35;;;;;;;6.84;65.27;100904.44;5116019;27;20036;-68
2022/04/12 03:15:48;;;;;;;6.18;3.50;;;;;;;6.83;65.23;100893.72;5113267;28;20106;-68
2022/04/12 03:18:16;;;;;;;8.00;4.25;;;;;;;6.85;65.09;100886.38;5110234;28;20112;-67
2022/04/12 03:20:41;;;;;;;7.28;4.50;;;;;;;6.85;65.48;100897.19;5113062;28;20051;-71
2022/04/12 03:23:07;;;;;;;7.45;4.38;;;;;;;6.82;65.48;100890.13;5109255;28;20066;-68
2022/04/12 03:25:32;;;;;;;9.25;4.93;;;;;;;6.81;65.57;100885.69;5107988;28;20716;-76
2022/04/12 03:27:57;;;;;;;6.93;4.90;;;;;;;6.82;65.65;100876.63;5107127;28;20106;-66
2022/04/12 03:30:23;;;;;;;8.95;5.20;;;;;;;6.82;65.33;100878.44;5105571;28;20073;-75
2022/04/12 03:32:48;;;;;;;8.13;4.22;;;;;;;6.81;65.71;100879.41;5106520;27;20026;-70
2022/04/12 03:35:13;;;;;;;8.52;4.78;;;;;;;6.78;65.28;100882.28;5112499;28;20118;-69
2022/04/12 03:37:39;;;;;;;8.50;4.65;;;;;;;6.76;65.67;100882.38;5106420;28;20103;-76
2022/04/12 03:40:06;;;;;;;8.73;5.05;;;;;;;6.74;65.86;100880.72;5102697;28;20098;-71
2022/04/12 03:42:31;;;;;;;6.75;4.60;;;;;;;6.73;65.40;100887.94;5097466;28;20505;-66
2022/04/12 03:44:56;;;;;;;7.15;4.70;;;;;;;6.66;65.79;100891.94;5110527;28;20047;-76
2022/04/12 03:47:22;;;;;;;7.28;4.68;;;;;;;6.58;67.01;100894.22;5103150;28;20453;-71
2022/04/12 03:49:47;;;;;;;10.70;4.72;;;;;;;6.48;66.56;100895.66;5107555;28;20027;-71
2022/04/12 03:52:12;;;;;;;10.80;5.28;;;;;;;6.42;66.72;100890.59;5111024;28;20040;-68
2022/04/12 03:54:38;;;;;;;8.68;5.82;;;;;;;6.35;68.63;100879.25;5097516;28;20511;-67
2022/04/12 03:57:03;;;;;;;12.18;6.80;;;;;;;6.36;67.61;100862.06;5108920;28;20398;-66
2022/04/12 03:59:29;;;;;;;7.72;5.25;;;;;;;6.37;67.36;100858.41;5104002;28;20118;-68
2022/04/12 04:01:54;;;;;;;7.90;4.80;;;;;;;6.36;66.87;100862.06;5097099;28;20031;-68
2022/04/12 04:04:20;;;;;;;7.85;5.40;;;;;;;6.39;67.44;100870.03;5101937;28;20031;-71
2022/04/12 04:06:45;;;;;;;7.47;4.72;;;;;;;6.34;68.16;100872.06;5110821;28;20119;-70
2022/04/12 04:09:11;;;;;;;7.05;4.88;;;;;;;6.31;67.64;100878.53;5102577;28;20065;-70
2022/04/12 04:11:40;;;;;;;6.55;5.15;;;;;;;6.27;68.88;100867.97;5091545;28;20028;-70
2022/04/12 04:14:10;;;;;;;7.45;5.30;;;;;;;6.26;68.20;100863.53;5091109;28;20047;-70
2022/04/12 04:16:37;;;;;;;8.48;4.78;;;;;;;6.32;68.14;100871.31;5089457;28;20032;-68
2022/04/12 04:19:02;;;;;;;6.20;5.30;;;;;;;6.34;68.27;100875.69;5098736;28;20040;-66
2022/04/12 04:21:28;;;;;;;7.55;4.78;;;;;;;6.35;68.37;100876.56;5090400;28;20562;-76
2022/04/12 04:23:53;;;;;;;7.68;5.22;;;;;;;6.36;68.90;100870.19;5090554;28;20024;-65
2022/04/12 04:26:18;;;;;;;8.38;5.70;;;;;;;6.40;68.98;100863.66;5091627;28;20115;-68
2022/04/12 04:28:45;;;;;;;8.13;5.47;;;;;;;6.44;68.27;100873.34;5093330;28;20119;-66
2022/04/12 04:31:11;;;;;;;8.05;4.63;;;;;;;6.42;68.09;100877.94;5089861;28;20055;-66
2022/04/12 04:33:37;;;;;;;9.98;5.72;;;;;;;6.37;68.42;100874.63;5090442;28;20042;-66
2022/04/12 04:36:03;;;;;;;11.18;5.32;;;;;;;6.35;68.44;100884.66;5087973;28;20031;-77
2022/04/12 04:38:28;;;;;;;10.88;5.97;;;;;;;6.31;69.07;100875.84;5086477;28;20031;-70
2022/04/12 04:40:53;;;;;;;9.88;5.63;;;;;;;6.28;68.28;100878.69;5108781;28;20042;-76
2022/04/12 04:43:19;;;;;;;6.68;4.72;;;;;;;6.27;69.11;100876.09;5103945;28;20070;-73
2022/04/12 04:45:44;;;;;;;9.40;5.32;;;;;;;6.24;69.42;100876.25;5111455;28;20051;-66
2022/04/12 04:48:10;;;;;;;10.93;4.82;;;;;;;6.14;69.42;100879.44;5098910;28;20137;-75
2022/04/12 04:50:36;;;;;;;7.25;4.95;;;;;;;6.10;68.42;100898.59;5098392;28;20357;-69
2022/04/12 04:53:04;;;;;;;7.35;4.60;;;;;;;6.05;69.36;100908.75;5105711;28;20106;-76
2022/04/12 04:55:31;;;;;;;9.45;5.18;;;;;;;6.02;69.39;100911.66;5099451;28;20493;-68
2022/04/12 04:57:59;;;;;;;9.80;4.50;;;;;;;6.03;68.45;100922.34;5104792;28;20044;-77
2022/04/12 05:00:29;;;;;;;7.60;5.03;;;;;;;6.04;69.49;100918.69;5109147;28;20058;-70
2022/04/12 05:02:55;;;;;;;7.72;5.50;;;;;;;6.03;69.45;100922.34;5108222;28;20031;-69
2022/04/12 05:05:21;;;;;;;7.95;4.82;;;;;;;6.04;68.78;100920.53;5103734;28;20060;-69
2022/04/12 05:07:49;;;;;;;7.53;5.25;;;;;;;6.08;69.68;100920.28;5107033;28;20027;-67
2022/04/12 05:10:34;;;;;;;7.97;5.07;;;;;;;6.11;69.38;100906.63;5104448;28;20059;-77
2022/04/12 05:13:01;;;;;;;8.40;5.50;;;;;;;6.10;71.29;100904.84;5087430;28;20096;-66
2022/04/12 05:15:27;;;;;;;9.60;5.47;;;;;;;6.13;71.44;100890.34;5102651;28;20032;-66
2022/04/12 05:17:53;;;;;;;10.98;5.18;;;;;;;6.20;69.83;100889.06;5106425;28;20079;-68
2022/04/12 05:20:21;;;;;;;10.07;5.68;;;;;;;6.25;69.43;100897.78;5098979;28;20035;-69
2022/04/12 05:22:47;;;;;;;8.85;5.63;;;;;;;6.29;71.30;100902.03;5089357;28;20078;-73
2022/04/12 05:25:13;;;;;;;7.32;4.93;;;;;;;6.34;70.35;100910.81;5089846;28;20054;-70
2022/04/12 05:27:38;;;;;;;7.75;5.05;;;;;;;6.37;71.99;100905.22;5087990;28;20035;-66
2022/04/12 05:30:09;;;;;;;9.40;5.65;;;;;;;6.41;71.81;100902.34;5088866;28;20028;-68
2022/04/12 05:32:35;;;;;;;12.48;6.03;;;;;;;6.44;71.97;100894.97;5101734;28;20027;-76
2022/04/12 05:35:01;;;;;;;7.05;5.25;;;;;;;6.48;72.93;100899.25;5089136;28;20547;-71
2022/04/12 05:37:28;;;;;;;9.68;5.55;;;;;;;6.50;71.93;100891.91;5088161;28;20028;-71
2022/04/12 05:39:55;;;;;;;15.10;7.65;;;;;;;6.53;71.84;100896.31;5088806;28;20028;-66
2022/04/12 05:42:20;;;;;;;10.10;5.80;;;;;;;6.57;70.72;100895.13;5096488;28;20046;-70
2022/04/12 05:44:46;;;;;;;13.27;5.82;;;;;;;6.61;70.26;100897.59;5096590;28;20036;-68
2022/04/12 05:47:12;;;;;;;12.75;6.00;;;;;;;6.67;70.38;100891.00;5103033;28;20196;-66
2022/04/12 05:49:38;;;;;;;12.15;6.28;;;;;;;6.71;69.84;100883.56;5108527;28;20023;-75
2022/04/12 05:52:04;;;;;;;9.65;6.25;;;;;;;6.77;69.30;100900.34;5110003;28;20061;-67
2022/04/12 05:54:29;;;;;;;8.63;5.25;;;;;;;6.79;70.77;100908.34;5098906;28;20043;-71
2022/04/12 05:56:54;;;;;;;12.40;5.68;;;;;;;6.82;69.66;100902.78;5108930;28;20129;-77
2022/04/12 05:59:21;;;;;;;9.63;6.45;;;;;;;6.87;69.12;100914.22;5100487;28;20097;-77
2022/04/12 06:01:47;;;;;;;9.82;6.68;;;;;;;6.88;69.94;100899.72;5092194;28;20173;-65
2022/04/12 06:04:12;;;;;;;10.70;7.20;;;;;;;7.04;69.45;100900.63;5108847;28;20126;-68
2022/04/12 06:06:41;;;;;;;10.38;6.43;;;;;;;7.24;68.67;100895.91;5096546;28;20039;-77
2022/04/12 06:09:06;;;;;;;11.32;6.40;;;;;;;7.40;67.42;100903.00;5103439;28;20020;-70
2022/04/12 06:11:31;;;;;;;10.23;6.70;;;;;;;7.50;67.98;100911.47;5103107;28;20039;-65
2022/04/12 06:13:58;;;;;;;9.88;6.28;;;;;;;7.67;67.76;100907.78;5097672;28;20035;-71
2022/04/12 06:16:23;;;;;;;8.70;5.75;;;;;;;7.93;67.09;100906.22;5109685;28;20020;-74
2022/04/12 06:18:49;;;;;;;11.43;7.88;;;;;;;8.03;66.02;100902.00;5107687;28;20038;-66
2022/04/12 06:21:14;;;;;;;9.88;6.50;;;;;;;8.08;65.68;100899.00;5108420;28;20035;-78
2022/04/12 06:23:39;;;;;;;10.75;6.05;;;;;;;8.18;66.23;100905.59;5106958;28;20039;-77
2022/04/12 06:26:05;;;;;;;9.82;7.18;;;;;;;8.29;66.32;100913.91;5089061;28;20032;-69
2022/04/12 06:28:30;;;;;;;9.23;5.93;;;;;;;8.49;64.72;100901.03;5099440;28;20055;-77
2022/04/12 06:30:58;;;;;;;11.60;6.68;;;;;;;9.01;64.21;100909.41;5091609;28;20111;-69
2022/04/12 06:33:24;;;;;;;9.30;6.55;;;;;;;9.95;62.00;100902.16;5088447;28;20064;-70
2022/04/12 06:35:49;;;;;;;9.18;6.85;;;;;;;10.78;59.36;100898.19;5087969;28;20102;-70
2022/04/12 06:38:15;;;;;;;9.10;6.53;;;;;;;11.11;57.64;100903.88;5089196;28;20227;-66
2022/04/12 06:40:41;;;;;;;14.40;6.35;;;;;;;10.90;58.88;100900.88;5088667;28;20027;-69
2022/04/12 06:43:06;;;;;;;11.70;6.63;;;;;;;10.66;58.92;100908.09;5106411;28;20035;-68
2022/04/12 06:45:32;;;;;;;9.15;6.72;;;;;;;10.54;59.85;100906.25;5109096;28;20043;-68
2022/04/12 06:47:59;;;;;;;11.50;6.20;;;;;;;10.59;59.72;100906.81;5101238;28;20035;-70
2022/04/12 06:50:26;;;;;;;11.77;6.68;;;;;;;10.96;58.60;100903.16;5091544;28;20047;-77
2022/04/12 06:52:53;;;;;;;10.65;6.40;;;;;;;11.30;57.87;100887.03;5091757;28;20032;-68
2022/04/12 06:55:18;;;;;;;15.68;6.88;;;;;;;11.46;57.06;100887.63;5092120;28;20455;-67
2022/04/12 06:57:44;;;;;;;11.95;6.03;;;;;;;11.59;56.71;100886.69;5092461;28;20036;-78
2022/04/12 07:00:10;;;;;;;8.95;5.80;;;;;;;11.86;56.26;100892.78;5091324;28;20031;-75
2022/04/12 07:02:36;;;;;;;13.48;6.60;;;;;;;12.08;55.95;100896.59;5092378;28;20088;-67
2022/04/12 07:05:06;;;;;;;10.45;5.22;;;;;;;12.30;55.56;100891.16;5090800;28;20408;-70
2022/04/12 07:07:32;;;;;;;14.45;6.50;;;;;;;12.77;54.36;100887.34;5092677;28;20032;-71
2022/04/12 07:09:57;;;;;;;8.75;6.15;;;;;;;13.01;53.35;100886.38;5090733;28;20038;-69
2022/04/12 07:12:24;;;;;;;8.77;5.68;;;;;;;13.11;52.29;100887.34;5088773;28;20110;-71
2022/04/12 07:14:50;;;;;;;10.88;5.72;;;;;;;13.13;53.01;100881.75;5088539;28;20415;-70
2022/04/12 07:17:15;;;;;;;11.73;6.15;;;;;;;13.29;52.23;100893.19;5095779;28;20036;-67
2022/04/12 07:19:40;;;;;;;9.80;5.70;;;;;;;13.49;51.20;100895.13;5092207;28;20024;-77
2022/04/12 07:22:07;;;;;;;8.82;5.78;;;;;;;13.33;51.67;100899.25;5080140;28;20040;-68
2022/04/12 07:24:33;;;;;;;10.00;5.88;;;;;;;13.29;52.36;100890.47;5096184;28;20028;-70
2022/04/12 07:26:58;;;;;;;8.15;5.82;;;;;;;13.11;52.79;100895.56;5111433;28;20445;-75
2022/04/12 07:29:23;;;;;;;9.25;5.38;;;;;;;12.96;53.67;100889.50;5094472;28;20047;-70
2022/04/12 07:31:49;;;;;;;8.95;5.75;;;;;;;12.95;53.67;100881.41;5089024;28;20039;-68
2022/04/12 07:34:14;;;;;;;8.10;5.05;;;;;;;13.49;53.05;100891.53;5091288;28;20104;-65
2022/04/12 07:36:43;;;;;;;9.82;5.25;;;;;;;14.59;50.59;100895.69;5089743;28;20115;-76
2022/04/12 07:39:09;;;;;;;11.65;5.70;;;;;;;15.11;48.16;100888.28;5090975;28;20036;-66
2022/04/12 07:41:34;;;;;;;6.70;5.25;;;;;;;15.39;47.70;100875.66;5091912;28;20041;-68
2022/04/12 07:43:59;;;;;;;7.95;5.47;;;;;;;15.43;47.62;100884.44;5102398;28;20118;-75
2022/04/12 07:46:25;;;;;;;9.75;5.20;;;;;;;15.35;47.57;100881.56;5112296;28;20039;-73
2022/04/12 07:48:50;;;;;;;11.05;5.40;;;;;;;15.12;47.70;100878.19;5103169;28;20122;-75
2022/04/12 07:51:15;;;;;;;10.70;5.45;;;;;;;15.07;48.34;100883.22;5096721;28;20038;-77
2022/04/12 07:53:41;;;;;;;8.02;4.75;;;;;;;15.05;48.34;100886.94;5089052;28;20052;-68
2022/04/12 07:56:07;;;;;;;7.50;5.03;;;;;;;15.17;49.97;100889.59;5091614;28;20059;-74
2022/04/12 07:58:32;;;;;;;11.48;4.63;;;;;;;15.22;48.16;100874.47;5094065;28;20048;-70
2022/04/12 08:00:57;;;;;;;8.43;4.50;;;;;;;15.49;49.52;100881.16;5091174;28;20036;-68
2022/04/12 08:03:23;;;;;;;8.02;4.68;;;;;;;15.69;48.16;100885.69;5090398;28;20012;-69
2022/04/12 08:05:49;;;;;;;6.20;4.43;;;;;;;16.00;49.02;100878.19;5090361;28;20119;-66
2022/04/12 08:08:14;;;;;;;7.82;4.97;;;;;;;16.22;47.05;100881.63;5091581;28;20066;-68
2022/04/12 08:10:40;;;;;;;8.40;3.97;;;;;;;16.53;48.05;100887.78;5096763;28;20070;-70
2022/04/12 08:13:05;;;;;;;7.65;4.70;;;;;;;16.83;46.92;100886.69;5089684;28;20028;-67
2022/04/12 08:15:30;;;;;;;8.27;4.40;;;;;;;16.94;44.99;100892.00;5091000;28;20097;-75
2022/04/12 08:17:56;;;;;;;6.35;4.10;;;;;;;17.14;44.99;100884.53;5095753;28;20042;-70
2022/04/12 08:20:22;;;;;;;8.90;4.18;;;;;;;17.23;45.66;100886.34;5092066;28;20032;-68
2022/04/12 08:22:48;;;;;;;4.93;3.88;;;;;;;17.42;44.76;100893.63;5091795;28;20028;-69
2022/04/12 08:25:14;;;;;;;4.72;3.78;;;;;;;17.54;43.97;100891.53;5089968;28;20032;-69
2022/04/12 08:27:39;;;;;;;7.38;3.92;;;;;;;17.59;44.16;100894.69;5092844;28;20032;-75
2022/04/12 08:30:07;;;;;;;12.70;3.50;;;;;;;17.67;43.79;100888.38;5094839;28;20036;-70
2022/04/12 08:32:34;;;;;;;7.35;4.10;;;;;;;17.81;43.22;100887.88;5089695;28;20024;-67
2022/04/12 08:34:59;;;;;;;6.03;3.25;;;;;;;17.83;41.91;100885.84;5089578;28;20044;-67
2022/04/12 08:37:25;;;;;;;4.72;3.40;;;;;;;18.01;42.71;100883.94;5088971;28;20036;-75
2022/04/12 08:39:51;;;;;;;3.55;3.10;;;;;;;18.34;42.92;100890.59;5088875;28;20448;-69
2022/04/12 08:42:17;;;;;;;7.68;3.80;;;;;;;18.42;40.10;100876.03;5099397;28;20020;-69
2022/04/12 08:44:45;;;;;;;5.60;3.80;;;;;;;18.66;42.10;100877.22;5107557;28;20035;-69
2022/04/12 08:47:14;;;;;;;4.70;3.55;;;;;;;18.84;42.49;100869.78;5104676;28;20094;-66
2022/04/12 08:49:40;;;;;;;6.68;4.20;;;;;;;18.88;41.82;100865.63;5109749;28;20375;-68
2022/04/12 08:52:11;;;;;;;6.05;3.85;;;;;;;18.75;41.40;100843.19;5110940;28;20043;-75
2022/04/12 08:54:37;;;;;;;5.88;3.50;;;;;;;18.72;39.91;100857.28;5102738;28;20044;-67
2022/04/12 08:57:02;;;;;;;10.07;3.58;;;;;;;18.79;42.30;100853.72;5095379;28;20042;-75
2022/04/12 08:59:28;;;;;;;7.00;4.00;;;;;;;19.11;40.19;100844.69;5102513;28;20732;-69
2022/04/12 09:01:54;;;;;;;8.40;4.05;;;;;;;19.01;39.62;100846.72;5106480;28;20063;-76
2022/04/12 09:04:20;;;;;;;5.90;3.70;;;;;;;19.00;41.57;100857.94;5098951;28;20015;-69
2022/04/12 09:06:50;;;;;;;7.03;3.88;;;;;;;19.07;41.24;100842.44;5100905;28;20470;-66
2022/04/12 09:09:18;;;;;;;6.15;3.45;;;;;;;19.13;40.15;100850.06;5103577;28;20034;-70
2022/04/12 09:11:54;;;;;;;6.60;3.30;;;;;;;19.30;39.95;100839.94;5105349;28;20024;-64
2022/04/12 09:14:19;;;;;;;6.43;3.55;;;;;;;19.62;42.53;100852.97;5098445;28;20036;-70
2022/04/12 09:16:46;;;;;;;4.93;3.30;;;;;;;19.87;40.94;100846.47;5100458;28;20028;-70
2022/04/12 09:19:12;;;;;;;7.72;3.60;;;;;;;20.00;37.83;100837.66;5109246;28;20035;-65
2022/04/12 09:21:47;;;;;;;4.78;3.35;;;;;;;20.14;40.09;100833.34;5110422;28;20515;-75
2022/04/12 09:24:20;;;;;;;6.88;2.92;;;;;;;20.44;41.56;100823.47;5097198;28;20579;-66
2022/04/12 09:26:55;;;;;;;5.97;3.45;;;;;;;20.61;39.23;100816.91;5103331;28;20031;-65
2022/04/12 09:29:29;;;;;;;6.47;3.40;;;;;;;20.70;39.53;100816.84;5097060;28;20055;-67
2022/04/12 09:31:58;;;;;;;6.70;3.38;;;;;;;20.70;40.00;100817.72;5106534;28;20364;-65
2022/04/12 09:34:26;;;;;;;4.53;3.08;;;;;;;20.47;39.10;100813.94;5107902;28;20052;-75
2022/04/12 09:36:52;;;;;;;54.78;6.50;;;;;;;20.19;38.68;100814.38;5110162;28;20046;-66
2022/04/12 09:39:19;;;;;;;6.05;2.90;;;;;;;20.18;39.51;100809.00;5102945;28;20039;-67
2022/04/12 09:41:49;;;;;;;5.03;3.05;;;;;;;20.43;40.76;100810.69;5096664;28;20031;-66
2022/04/12 09:44:18;;;;;;;8.20;3.53;;;;;;;20.50;38.42;100817.25;5104275;28;20427;-67
2022/04/12 09:46:44;;;;;;;10.38;3.83;;;;;;;20.57;38.71;100820.19;5106289;28;20167;-68
2022/04/12 09:49:10;;;;;;;10.30;3.80;;;;;;;20.62;38.44;100826.06;5103192;28;20031;-65
2022/04/12 09:51:37;;;;;;;4.88;3.38;;;;;;;20.57;39.22;100822.97;5096587;28;20028;-69
2022/04/12 09:54:07;;;;;;;5.50;3.50;;;;;;;20.47;38.71;100823.16;5105313;28;20536;-72
2022/04/12 09:56:34;;;;;;;6.57;3.15;;;;;;;20.62;39.93;100826.91;5105721;28;20114;-67
2022/04/12 09:59:01;;;;;;;5.38;3.00;;;;;;;20.77;39.17;100815.97;5101378;28;20096;-69
2022/04/12 10:01:27;;;;;;;4.05;2.63;;;;;;;20.84;39.37;100824.41;5109988;28;20411;-67
2022/04/12 10:03:55;;;;;;;4.63;2.95;;;;;;;20.74;37.13;100826.53;5094569;28;20024;-67
2022/04/12 10:06:23;;;;;;;3.88;2.50;;;;;;;20.89;38.88;100827.53;5097364;28;20036;-74
2022/04/12 10:08:53;;;;;;;9.68;2.90;;;;;;;21.11;39.84;100812.88;5106193;28;20053;-75
2022/04/12 10:11:20;;;;;;;5.97;2.85;;;;;;;21.44;36.91;100811.88;5101719;28;20110;-65
2022/04/12 10:13:46;;;;;;;4.15;2.65;;;;;;;21.53;37.31;100803.31;5099615;28;20032;-69
2022/04/12 10:16:14;;;;;;;6.57;2.80;;;;;;;21.54;37.00;100795.88;5092539;28;20080;-70
2022/04/12 10:18:40;;;;;;;4.47;2.50;;;;;;;21.56;35.97;100782.72;5111354;28;20036;-67
2022/04/12 10:21:06;;;;;;;5.65;2.72;;;;;;;21.58;37.99;100781.47;5112629;28;20136;-65
2022/04/12 10:23:33;;;;;;;7.18;3.15;;;;;;;21.58;38.33;100777.84;5098899;28;20074;-68
2022/04/12 10:26:00;;;;;;;7.72;2.95;;;;;;;21.86;37.62;100783.69;5098826;28;20054;-70
2022/04/12 10:28:28;;;;;;;7.72;3.28;;;;;;;22.10;37.21;100775.16;5110755;28;20043;-67
2022/04/12 10:31:17;;;;;;;7.43;3.50;;;;;;;22.17;36.00;100779.97;5113532;28;20044;-69
2022/04/12 10:34:02;;;;;;;5.90;3.00;;;;;;;22.18;37.09;100770.59;5108370;28;20320;-70
2022/04/12 10:36:58;;;;;;;11.45;3.33;;;;;;;22.21;37.17;100767.47;5104197;28;20028;-75
2022/04/12 10:39:29;;;;;;;5.07;3.13;;;;;;;21.98;36.52;100771.13;5108625;28;20049;-66
2022/04/12 10:41:55;;;;;;;5.22;3.40;;;;;;;21.97;37.34;100774.09;5100740;28;20031;-65
2022/04/12 10:44:22;;;;;;;4.68;3.10;;;;;;;21.97;36.77;100774.94;5106625;28;20035;-66
2022/04/12 10:46:51;;;;;;;7.97;4.20;;;;;;;21.88;36.80;100767.75;5109650;28;20504;-66
2022/04/12 10:49:20;;;;;;;5.25;3.58;;;;;;;21.77;37.11;100765.41;5109324;28;20035;-74
2022/04/12 10:51:46;;;;;;;9.45;3.83;;;;;;;21.81;38.64;100764.00;5113623;28;20047;-66
2022/04/12 10:54:34;;;;;;;7.95;3.80;;;;;;;21.95;38.87;100760.41;5107522;28;20069;-64
2022/04/12 10:57:18;;;;;;;10.63;3.97;;;;;;;22.18;38.76;100746.53;5112800;28;20429;-69
2022/04/12 10:59:52;;;;;;;5.05;2.88;;;;;;;22.09;37.31;100742.94;5107077;28;20053;-74
2022/04/12 11:02:18;;;;;;;6.13;3.72;;;;;;;21.70;36.35;100740.38;5093462;28;20043;-74
2022/04/12 11:04:43;;;;;;;13.40;4.35;;;;;;;21.42;37.23;100744.75;5087869;28;20015;-72
2022/04/12 11:07:10;;;;;;;9.30;3.92;;;;;;;21.32;38.63;100753.31;5112353;28;20047;-72
2022/04/12 11:09:35;;;;;;;6.72;3.67;;;;;;;21.16;37.76;100759.75;5102313;28;20039;-76
2022/04/12 11:12:02;;;;;;;5.10;3.85;;;;;;;21.04;38.63;100769.53;5110277;28;20027;-65
2022/04/12 11:14:32;;;;;;;11.38;4.20;;;;;;;21.18;39.34;100759.59;5102773;28;20031;-76
2022/04/12 11:17:03;;;;;;;12.23;3.65;;;;;;;21.45;39.52;100767.41;5110208;28;20070;-67
2022/04/12 11:19:39;;;;;;;7.18;3.20;;;;;;;21.79;40.56;100768.88;5111548;28;20483;-70
2022/04/12 11:22:04;;;;;;;6.72;3.75;;;;;;;21.78;37.46;100753.31;5101767;28;20036;-75
2022/04/12 11:24:30;;;;;;;8.27;3.63;;;;;;;21.52;39.07;100745.38;5104434;28;20103;-67
2022/04/12 11:27:13;;;;;;;7.85;3.33;;;;;;;21.49;39.67;100735.53;5105687;28;20118;-67
2022/04/12 11:29:40;;;;;;;8.75;3.33;;;;;;;21.45;39.85;100744.38;5106601;28;20031;-67